Bei Facebook empfehlenBei Twitter postenGoogle plusPinterest

Das Wetter im Erzgebirge am 04.09.2017

Wetter und Klima am 04.09.2017 Holzhau im Erzgebirge (630m ü.NN)
Letzte gemessene Temperatur und Uhrzeit der Messung23:45:00 Uhr6.00 °C
Temperatur (Maximum / Höchstwert) und Uhrzeit der Messung16:30:00 Uhr19.90 °C
Temperatur (Minimum / Tiefstwert) und Uhrzeit der Messung06:15:001.50 °C
Errechneter Absolutwert der Temperaturschwankungen zwischen Tmin und Tmax des Tages18.40 K
Errechnete Tagesmitteltemperatur9.81250 °C
Gesamt - Niederschlag des Tages (in flüssiger Form)0.00 Liter / m²
Luftdruck (Maximum / Höchstwert) und Zeitpunkt der Messung23:30:00 Uhr1015.70 hPa
Luftdruck (Minimum / Tiefstwert) und Zeitpunkt der Messung07:15:00 Uhr1011.40 hPa
Errechneter Absolutwert der Luftdruckschwankungen des Tages4.30 hPa
Höchste gemessene Windgeschwindigkeit und Uhrzeit der Messung12:30:00 Uhr28.44 km/h
Errechnete Windhäufigkeit in Relation zu den Messwerten des Tages7.29167 %
Niedrigste Windkühle (Windchill) und Zeitpunkt der Messung06:15:00 Uhr1.50 °C
Taupunkt (Maximum / Höchstwert) und Uhrzeit der Messung09:45:00 Uhr10.80 °C
Taupunkt (Minimum / Tiefstwert) und Uhrzeit der Messung03:45:000.40 °C
Anzahl der automatisch eingelesenen Messwerte 96

Detaillierte Wetter- und Klima- Messwerte für den 04.09.2017 in Holzhau im Erzgebirge (630m ü.NN)
ZeitTemperaturLuftdruckRel. LuftfeuchteWindWindrichtungWindchillTaupunktNiederschlag l/m²
23:45:006.00 °C1015.60 hPa90.00 %4.50 °C 
23:30:005.90 °C1015.70 hPa89.00 %4.20 °C 
23:15:005.80 °C1015.60 hPa88.00 %4.00 °C 
23:00:006.10 °C1015.40 hPa88.00 %4.30 °C 
22:45:006.40 °C1015.40 hPa87.00 %4.40 °C 
22:30:006.90 °C1015.20 hPa87.00 %4.90 °C 
22:15:007.10 °C1015.30 hPa86.00 %4.90 °C 
22:00:007.20 °C1015.30 hPa86.00 %5.00 °C 
21:45:007.30 °C1015.50 hPa86.00 %5.10 °C 
21:30:007.40 °C1015.20 hPa84.00 %4.90 °C 
21:15:007.60 °C1015.10 hPa83.00 %4.90 °C 
21:00:008.10 °C1015.10 hPa82.00 %5.20 °C 
20:45:008.30 °C1014.90 hPa80.00 %5.10 °C 
20:30:008.90 °C1014.80 hPa78.00 %5.30 °C 
20:15:009.70 °C1014.70 hPa76.00 %5.70 °C 
20:00:0010.80 °C1014.30 hPa74.00 %6.40 °C 
19:45:0011.90 °C1014.20 hPa72.00 %7.00 °C 
19:30:0012.90 °C1014.20 hPa69.00 %7.40 °C 
19:15:0013.90 °C1014.10 hPa66.00 %7.70 °C 
19:00:0014.90 °C1014.10 hPa62.00 %7.70 °C 
18:45:0016.00 °C1014.00 hPa59.00 %8.00 °C 
18:30:0017.30 °C1013.90 hPa57.00 %8.70 °C 
18:15:0018.00 °C1013.90 hPa55.00 %8.80 °C 
18:00:0018.30 °C1013.70 hPa55.00 %9.10 °C 
17:45:0018.20 °C1013.80 hPa55.00 %9.00 °C 
17:30:0018.40 °C1013.50 hPa53.00 %8.70 °C 
17:15:0018.10 °C1013.50 hPa54.00 %8.70 °C 
17:00:0019.30 °C1013.60 hPa52.00 %9.20 °C 
16:45:0019.70 °C1013.50 hPa53.00 %9.90 °C 
16:30:0019.90 °C1013.60 hPa53.00 %24.48 km/hSSW20.80 °C10.00 °C 
16:15:0019.30 °C1013.60 hPa53.00 %11.52 km/hSW19.30 °C9.50 °C 
16:00:0018.80 °C1013.80 hPa53.00 %9.00 °C 
15:45:0018.80 °C1013.60 hPa53.00 %9.00 °C 
15:30:0018.50 °C1013.70 hPa55.00 %18.00 km/hWNW19.40 °C9.30 °C 
15:15:0018.40 °C1013.30 hPa54.00 %8.90 °C 
15:00:0019.30 °C1013.40 hPa54.00 %9.80 °C 
14:45:0018.60 °C1013.50 hPa54.00 %9.10 °C 
14:30:0018.20 °C1013.60 hPa58.00 %9.80 °C 
14:15:0018.40 °C1013.40 hPa57.00 %9.70 °C 
14:00:0018.00 °C1013.70 hPa56.00 %9.10 °C 
13:45:0018.80 °C1013.50 hPa57.00 %11.52 km/hW18.80 °C10.10 °C 
13:30:0018.60 °C1013.50 hPa58.00 %21.96 km/hWNW19.30 °C10.20 °C 
13:15:0017.80 °C1013.50 hPa63.00 %10.70 °C 
13:00:0018.00 °C1013.60 hPa58.00 %9.60 °C 
12:45:0018.40 °C1013.60 hPa58.00 %10.00 °C 
12:30:0017.30 °C1013.60 hPa62.00 %28.44 km/hWNW17.60 °C10.00 °C 
12:15:0017.30 °C1013.90 hPa63.00 %10.20 °C 
12:00:0016.90 °C1013.70 hPa65.00 %10.30 °C 
11:45:0016.90 °C1013.50 hPa63.00 %9.80 °C 
11:30:0016.50 °C1013.50 hPa66.00 %10.10 °C 
11:15:0016.40 °C1013.40 hPa65.00 %9.80 °C 
11:00:0016.10 °C1013.10 hPa69.00 %9.00 km/hNW16.10 °C10.40 °C 
10:45:0015.60 °C1012.90 hPa71.00 %10.40 °C 
10:30:0014.60 °C1012.70 hPa75.00 %10.20 °C 
10:15:0013.90 °C1012.30 hPa77.00 %9.90 °C 
10:00:0013.20 °C1012.20 hPa83.00 %10.40 °C 
09:45:0012.40 °C1012.10 hPa90.00 %10.80 °C 
09:30:0011.30 °C1012.10 hPa96.00 %10.70 °C 
09:15:009.80 °C1012.10 hPa96.00 %9.20 °C 
09:00:008.10 °C1012.10 hPa95.00 %7.30 °C 
08:45:006.60 °C1011.70 hPa95.00 %5.90 °C 
08:30:005.50 °C1011.80 hPa95.00 %4.80 °C 
08:15:004.50 °C1011.60 hPa95.00 %3.80 °C 
08:00:003.60 °C1011.60 hPa95.00 %2.90 °C 
07:45:002.60 °C1011.50 hPa94.00 %1.70 °C 
07:30:001.90 °C1011.50 hPa94.00 %1.00 °C 
07:15:001.80 °C1011.40 hPa94.00 %0.90 °C 
07:00:001.60 °C1011.50 hPa94.00 %0.70 °C 
06:45:001.60 °C1011.70 hPa94.00 %0.70 °C 
06:30:001.60 °C1012.00 hPa93.00 %0.60 °C 
06:15:001.50 °C1012.00 hPa93.00 %0.50 °C 
06:00:001.70 °C1012.00 hPa94.00 %0.80 °C 
05:45:001.80 °C1011.90 hPa94.00 %0.90 °C 
05:30:001.80 °C1012.00 hPa93.00 %0.80 °C 
05:15:001.60 °C1012.10 hPa93.00 %0.60 °C 
05:00:001.60 °C1012.10 hPa93.00 %0.60 °C 
04:45:001.60 °C1012.20 hPa93.00 %0.60 °C 
04:30:001.80 °C1012.20 hPa93.00 %0.80 °C 
04:15:001.60 °C1012.40 hPa93.00 %0.60 °C 
04:00:001.80 °C1012.30 hPa93.00 %0.80 °C 
03:45:001.60 °C1012.30 hPa92.00 %0.40 °C 
03:30:001.80 °C1012.20 hPa92.00 %0.60 °C 
03:15:001.90 °C1012.10 hPa92.00 %0.70 °C 
03:00:001.90 °C1012.10 hPa92.00 %0.70 °C 
02:45:002.10 °C1012.20 hPa92.00 %0.90 °C 
02:30:002.10 °C1012.10 hPa92.00 %0.90 °C 
02:15:002.40 °C1012.40 hPa92.00 %1.20 °C 
02:00:002.60 °C1012.40 hPa92.00 %1.40 °C 
01:45:002.70 °C1012.50 hPa92.00 %1.50 °C 
01:30:002.90 °C1012.50 hPa91.00 %1.60 °C 
01:15:003.10 °C1012.50 hPa91.00 %1.80 °C 
01:00:003.30 °C1012.40 hPa91.00 %2.00 °C 
00:45:003.40 °C1012.30 hPa91.00 %2.10 °C 
00:30:003.60 °C1012.30 hPa91.00 %2.30 °C 
00:15:003.90 °C1012.30 hPa91.00 %2.60 °C 
00:00:004.10 °C1012.40 hPa90.00 %2.60 °C 

Permanenter Link zu dieser Seite: Wetter im Erzgebirge am 04.09.2017
Performance-Info: Die Erstellung der Seite / Statistik(en) / Tabelle(n) erforderte 5 Datenbankserver-Abfrage(n) und dauerte 98 Millisekunden. (Dieser Messwert ist von der Gesamt-Auslastung des Servers abhängig.)
Erzgebirge - Wetter | Erzgebirge - Wetter (Mobilgeräte) | Komplette Klimadatenbank